createdAt,value
2018-03-27T00:00:59.076Z,53.73
2018-03-27T00:03:26.640Z,52.07
2018-03-27T00:05:54.247Z,58.23
2018-03-27T00:08:21.801Z,59.73
2018-03-27T00:10:49.397Z,68.13
2018-03-27T00:13:16.954Z,57.97
2018-03-27T00:15:44.543Z,56.63
2018-03-27T00:18:12.140Z,59.37
2018-03-27T00:20:39.924Z,57.47
2018-03-27T00:23:07.504Z,53.73
2018-03-27T00:25:35.109Z,59.90
2018-03-27T00:28:14.329Z,53.23
2018-03-27T00:30:53.632Z,54.67
2018-03-27T00:33:33.232Z,57.53
2018-03-27T00:36:12.485Z,56.53
2018-03-27T00:38:52.157Z,50.40
2018-03-27T00:44:15.502Z,52.93
2018-03-27T00:46:43.069Z,57.30
2018-03-27T00:49:10.642Z,53.07
2018-03-27T00:51:38.240Z,48.80
2018-03-27T00:54:05.790Z,46.73
2018-03-27T00:56:33.370Z,60.47
2018-03-27T00:59:00.913Z,52.80
2018-03-27T01:01:28.500Z,63.83
2018-03-27T01:03:56.043Z,66.57
2018-03-27T01:06:23.620Z,61.13
2018-03-27T01:08:51.159Z,60.27
2018-03-27T01:11:18.739Z,59.00
2018-03-27T01:13:46.283Z,61.20
2018-03-27T01:16:14.497Z,60.90
2018-03-27T01:18:42.083Z,55.63
2018-03-27T01:21:09.676Z,60.93
2018-03-27T01:23:37.263Z,57.90
2018-03-27T01:26:04.854Z,55.47
2018-03-27T01:28:33.135Z,55.37
2018-03-27T01:31:00.685Z,58.20
2018-03-27T01:33:28.267Z,57.20
2018-03-27T01:35:55.807Z,54.97
2018-03-27T01:38:23.395Z,57.77
2018-03-27T01:40:50.943Z,61.03
2018-03-27T01:43:18.552Z,58.33
2018-03-27T01:45:46.100Z,56.17
2018-03-27T01:48:13.686Z,54.63
2018-03-27T01:50:41.284Z,58.20
2018-03-27T01:53:08.823Z,51.63
2018-03-27T01:55:37.273Z,52.43
2018-03-27T01:58:04.821Z,54.57
2018-03-27T02:00:32.368Z,50.97
2018-03-27T02:03:00.902Z,49.47
2018-03-27T02:05:28.857Z,49.70
2018-03-27T02:07:56.455Z,46.37
2018-03-27T02:10:24.004Z,47.33
2018-03-27T02:12:57.059Z,54.20
2018-03-27T02:15:29.967Z,46.93
2018-03-27T02:18:03.904Z,44.47
2018-03-27T02:20:37.502Z,47.87
2018-03-27T02:23:05.125Z,46.90
2018-03-27T02:25:32.674Z,41.50
2018-03-27T02:28:00.250Z,43.90
2018-03-27T02:30:27.793Z,45.53
2018-03-27T02:32:55.390Z,35.63
2018-03-27T02:35:23.644Z,41.67
2018-03-27T02:37:51.253Z,39.50
2018-03-27T02:40:18.803Z,37.80
2018-03-27T02:42:46.813Z,40.73
2018-03-27T02:45:14.405Z,39.10
2018-03-27T02:47:41.968Z,40.17
2018-03-27T02:50:09.565Z,38.00
2018-03-27T02:52:37.158Z,36.47
2018-03-27T02:55:04.757Z,35.00
2018-03-27T02:57:32.323Z,34.10
2018-03-27T03:00:00.748Z,34.20
2018-03-27T03:02:29.044Z,31.97
2018-03-27T03:04:56.634Z,37.10
2018-03-27T03:07:24.257Z,32.57
2018-03-27T03:09:51.803Z,36.43
2018-03-27T03:12:19.354Z,30.60
2018-03-27T03:14:46.943Z,36.47
2018-03-27T03:17:14.532Z,34.57
2018-03-27T03:19:42.646Z,35.90
2018-03-27T03:22:10.249Z,39.73
2018-03-27T03:24:38.094Z,34.27
2018-03-27T03:27:05.635Z,35.67
2018-03-27T03:29:33.832Z,37.30
2018-03-27T03:32:01.372Z,37.33
2018-03-27T03:34:28.915Z,40.17
2018-03-27T03:36:56.495Z,42.60
2018-03-27T03:39:24.107Z,37.60
2018-03-27T03:41:51.651Z,39.80
2018-03-27T03:44:19.645Z,40.23
2018-03-27T03:46:47.716Z,38.67
2018-03-27T03:49:15.298Z,40.70
2018-03-27T03:51:42.960Z,40.00
2018-03-27T03:54:11.163Z,37.80
2018-03-27T03:56:38.889Z,35.33
2018-03-27T03:59:06.492Z,39.20
2018-03-27T04:01:34.031Z,36.73
2018-03-27T04:04:01.621Z,39.03
2018-03-27T04:06:29.188Z,37.83
2018-03-27T04:08:56.736Z,43.20
2018-03-27T04:11:24.334Z,41.40
2018-03-27T04:13:51.888Z,41.13
2018-03-27T04:16:19.475Z,49.30
2018-03-27T04:18:47.079Z,35.57
2018-03-27T04:21:14.621Z,45.03
2018-03-27T04:23:42.224Z,46.30
2018-03-27T04:26:09.858Z,40.20
2018-03-27T04:28:37.415Z,44.00
2018-03-27T04:31:05.266Z,47.83
2018-03-27T04:33:32.861Z,44.17
2018-03-27T04:36:00.560Z,46.67
2018-03-27T04:38:28.103Z,42.93
2018-03-27T04:40:56.528Z,46.07
2018-03-27T04:43:24.132Z,44.23
2018-03-27T04:45:52.187Z,46.63
2018-03-27T04:48:19.757Z,43.80
2018-03-27T04:50:47.356Z,44.83
2018-03-27T04:53:15.848Z,42.53
2018-03-27T04:55:43.446Z,46.37
2018-03-27T04:58:11.020Z,50.83
2018-03-27T05:00:38.625Z,55.50
2018-03-27T05:03:06.190Z,61.63
2018-03-27T05:05:34.135Z,49.03
2018-03-27T05:08:01.688Z,74.67
2018-03-27T05:10:29.241Z,69.83
2018-03-27T05:12:56.836Z,64.77
2018-03-27T05:15:24.598Z,89.53
2018-03-27T05:17:52.975Z,69.77
2018-03-27T05:20:20.590Z,70.82
2018-03-27T05:22:48.233Z,72.53
2018-03-27T05:25:16.575Z,71.07
2018-03-27T05:27:44.155Z,59.83
2018-03-27T05:30:11.991Z,68.53
2018-03-27T05:32:39.589Z,73.25
2018-03-27T05:35:08.081Z,61.00
2018-03-27T05:37:35.988Z,59.17
2018-03-27T05:40:04.054Z,54.53
2018-03-27T05:42:32.511Z,79.63
2018-03-27T05:45:00.759Z,94.00
2018-03-27T05:47:28.439Z,90.30
2018-03-27T05:49:56.974Z,90.20
2018-03-27T05:52:25.273Z,61.63
2018-03-27T05:54:54.633Z,70.93
2018-03-27T05:57:22.538Z,61.30
2018-03-27T05:59:50.944Z,36.85
2018-03-27T06:02:19.173Z,28.60
2018-03-27T06:04:46.734Z,34.33
2018-03-27T06:07:14.281Z,40.83
2018-03-27T06:09:41.870Z,35.77
2018-03-27T06:12:10.457Z,30.67
2018-03-27T06:14:38.043Z,36.90
2018-03-27T06:17:05.655Z,33.67
2018-03-27T06:19:34.308Z,29.20
2018-03-27T06:22:02.052Z,31.25
2018-03-27T06:24:29.668Z,25.42
2018-03-27T06:26:57.669Z,30.12
2018-03-27T06:29:25.509Z,26.97
2018-03-27T06:31:53.120Z,26.52
2018-03-27T06:34:21.581Z,26.25
2018-03-27T06:36:49.314Z,23.70
2018-03-27T06:39:16.889Z,25.20
2018-03-27T06:41:44.444Z,28.63
2018-03-27T06:44:12.056Z,24.30
2018-03-27T06:46:39.643Z,27.73
2018-03-27T06:49:07.273Z,27.23
2018-03-27T06:51:34.837Z,26.57
2018-03-27T06:54:02.387Z,28.40
2018-03-27T06:56:30.284Z,26.97
2018-03-27T06:58:58.941Z,24.43
2018-03-27T07:01:26.704Z,26.43
2018-03-27T07:03:54.919Z,27.70
2018-03-27T07:06:22.563Z,22.90
2018-03-27T07:08:50.150Z,23.40
2018-03-27T07:11:18.286Z,22.83
2018-03-27T07:13:45.852Z,26.42
2018-03-27T07:16:13.428Z,25.87
2018-03-27T07:18:41.086Z,28.87
2018-03-27T07:21:08.848Z,29.20
2018-03-27T07:23:37.238Z,43.80
2018-03-27T07:26:04.853Z,35.57
2018-03-27T07:28:34.380Z,37.50
2018-03-27T07:31:02.493Z,31.23
2018-03-27T07:33:30.113Z,33.03
2018-03-27T07:35:57.721Z,26.70
2018-03-27T07:38:25.278Z,28.87
2018-03-27T07:40:52.884Z,23.70
2018-03-27T07:43:20.497Z,27.23
2018-03-27T07:45:49.032Z,29.58
2018-03-27T07:48:17.475Z,40.93
2018-03-27T07:50:46.037Z,30.63
2018-03-27T07:53:14.743Z,37.63
2018-03-27T07:55:42.349Z,31.50
2018-03-27T07:58:09.967Z,27.33
2018-03-27T08:00:37.558Z,31.70
2018-03-27T08:03:06.157Z,29.87
2018-03-27T08:05:33.805Z,31.90
2018-03-27T08:08:01.352Z,32.57
2018-03-27T08:10:28.975Z,37.27
2018-03-27T08:12:56.539Z,32.20
2018-03-27T08:15:24.136Z,30.60
2018-03-27T08:17:52.373Z,32.90
2018-03-27T08:20:20.251Z,31.13
2018-03-27T08:22:48.037Z,27.95
2018-03-27T08:25:16.558Z,30.53
2018-03-27T08:27:44.162Z,23.98
2018-03-27T08:30:12.799Z,23.83
2018-03-27T08:32:40.441Z,22.47
2018-03-27T08:35:08.056Z,25.23
2018-03-27T08:37:35.632Z,26.87
2018-03-27T08:40:03.260Z,27.85
2018-03-27T08:42:30.845Z,31.63
2018-03-27T08:44:58.630Z,23.93
2018-03-27T08:47:29.543Z,26.87
2018-03-27T08:49:57.128Z,29.43
2018-03-27T08:52:24.675Z,26.90
2018-03-27T08:54:52.327Z,25.83
2018-03-27T08:57:19.884Z,29.10
2018-03-27T08:59:47.815Z,34.00
2018-03-27T09:02:16.097Z,34.73
2018-03-27T09:04:44.423Z,33.80
2018-03-27T09:07:11.981Z,32.97
2018-03-27T09:09:39.601Z,31.53
2018-03-27T09:12:07.276Z,32.73
2018-03-27T09:14:35.873Z,36.27
2018-03-27T09:17:03.472Z,29.97
2018-03-27T09:19:31.103Z,34.13
2018-03-27T09:21:58.691Z,32.53
2018-03-27T09:24:26.864Z,34.88
2018-03-27T09:26:54.461Z,39.70
2018-03-27T09:29:22.429Z,31.87
2018-03-27T09:31:50.247Z,34.80
2018-03-27T09:34:17.904Z,39.67
2018-03-27T09:36:45.476Z,30.73
2018-03-27T09:39:13.102Z,41.33
2018-03-27T09:41:41.043Z,45.63
2018-03-27T09:44:08.645Z,46.17
2018-03-27T09:46:36.196Z,30.80
2018-03-27T09:49:04.660Z,37.53
2018-03-27T09:51:32.221Z,37.67
2018-03-27T09:53:59.823Z,35.90
2018-03-27T09:56:27.511Z,32.13
2018-03-27T09:58:55.085Z,39.15
2018-03-27T10:01:28.579Z,41.10
2018-03-27T10:03:56.144Z,39.85
2018-03-27T10:06:23.755Z,34.93
2018-03-27T10:08:51.408Z,35.15
2018-03-27T10:11:19.142Z,36.33
2018-03-27T10:13:46.721Z,34.17
2018-03-27T10:16:14.333Z,32.20
2018-03-27T10:18:41.900Z,31.87
2018-03-27T10:21:09.504Z,27.52
2018-03-27T10:23:37.081Z,32.97
2018-03-27T10:26:05.667Z,29.50
2018-03-27T10:28:33.229Z,34.47
2018-03-27T10:31:00.806Z,27.52
2018-03-27T10:33:28.396Z,31.03
2018-03-27T10:35:56.978Z,33.05
2018-03-27T10:38:24.672Z,28.93
2018-03-27T10:40:52.254Z,24.87
2018-03-27T10:43:19.870Z,29.50
2018-03-27T10:45:47.716Z,30.80
2018-03-27T10:48:15.433Z,27.83
2018-03-27T10:50:43.043Z,28.63
2018-03-27T10:53:11.432Z,37.70
2018-03-27T10:55:39.844Z,32.20
2018-03-27T10:58:07.426Z,28.58
2018-03-27T11:00:35.300Z,38.08
2018-03-27T11:03:03.558Z,35.10
2018-03-27T11:05:31.166Z,22.23
2018-03-27T11:07:58.776Z,22.48
2018-03-27T11:10:26.340Z,19.58
2018-03-27T11:12:53.912Z,18.80
2018-03-27T11:15:21.604Z,26.70
2018-03-27T11:17:49.208Z,26.77
2018-03-27T11:20:16.829Z,30.08
2018-03-27T11:22:44.403Z,25.87
2018-03-27T11:25:11.955Z,27.30
2018-03-27T11:27:39.738Z,22.73
2018-03-27T11:30:08.281Z,31.90
2018-03-27T11:32:35.881Z,26.23
2018-03-27T11:35:03.453Z,26.53
2018-03-27T11:37:31.394Z,16.80
2018-03-27T11:39:58.995Z,22.80
2018-03-27T11:42:27.380Z,14.40
2018-03-27T11:44:55.076Z,20.10
2018-03-27T11:47:22.672Z,21.45
2018-03-27T11:49:50.305Z,18.97
2018-03-27T11:52:18.276Z,19.43
2018-03-27T11:54:45.939Z,19.73
2018-03-27T11:57:13.561Z,29.20
2018-03-27T11:59:41.132Z,19.07
2018-03-27T12:02:09.572Z,20.93
2018-03-27T12:04:37.142Z,19.37
2018-03-27T12:07:04.691Z,20.03
2018-03-27T12:09:32.298Z,19.20
2018-03-27T12:11:59.908Z,24.03
2018-03-27T12:14:27.460Z,15.93
2018-03-27T12:16:55.030Z,18.92
2018-03-27T12:19:23.416Z,20.07
2018-03-27T12:21:51.062Z,20.30
2018-03-27T12:24:19.034Z,18.10
2018-03-27T12:26:46.637Z,22.10
2018-03-27T12:29:14.247Z,21.20
2018-03-27T12:31:42.141Z,19.33
2018-03-27T12:34:09.804Z,20.60
2018-03-27T12:36:37.363Z,19.92
2018-03-27T12:39:05.742Z,18.80
2018-03-27T12:41:33.457Z,19.67
2018-03-27T12:44:01.143Z,13.83
2018-03-27T12:46:28.783Z,18.80
2018-03-27T12:48:56.781Z,20.90
2018-03-27T12:51:24.372Z,15.20
2018-03-27T12:53:52.251Z,17.73
2018-03-27T12:56:21.288Z,16.60
2018-03-27T12:58:49.560Z,17.43
2018-03-27T13:01:17.403Z,16.70
2018-03-27T13:03:46.846Z,16.00
2018-03-27T13:06:14.826Z,17.85
2018-03-27T13:08:42.780Z,13.38
2018-03-27T13:11:10.706Z,16.30
2018-03-27T13:13:39.638Z,12.90
2018-03-27T13:16:07.262Z,14.45
2018-03-27T13:18:37.058Z,14.18
2018-03-27T13:21:05.281Z,14.80
2018-03-27T13:23:33.633Z,15.80
2018-03-27T13:26:03.200Z,12.77
2018-03-27T13:28:31.929Z,14.30
2018-03-27T13:31:00.175Z,15.63
2018-03-27T13:33:28.429Z,16.03
2018-03-27T13:35:56.386Z,13.63
2018-03-27T13:38:24.029Z,17.87
2018-03-27T13:40:51.637Z,16.03
2018-03-27T13:43:19.529Z,12.63
2018-03-27T13:45:48.965Z,17.77
2018-03-27T13:48:16.538Z,20.77
2018-03-27T13:50:44.201Z,16.07
2018-03-27T13:53:13.072Z,18.63
2018-03-27T13:55:40.627Z,17.03
2018-03-27T13:58:09.787Z,14.83
2018-03-27T14:00:38.185Z,15.20
2018-03-27T14:03:05.772Z,16.90
2018-03-27T14:05:34.302Z,13.80
2018-03-27T14:08:03.334Z,14.50
2018-03-27T14:10:32.025Z,17.40
2018-03-27T14:13:00.986Z,15.37
2018-03-27T14:15:28.968Z,13.20
2018-03-27T14:17:56.569Z,9.27
2018-03-27T14:20:25.132Z,17.17
2018-03-27T14:22:54.141Z,14.03
2018-03-27T14:25:22.544Z,11.30
2018-03-27T14:27:50.184Z,14.33
2018-03-27T14:30:18.845Z,14.23
2018-03-27T14:32:46.429Z,12.93
2018-03-27T14:35:14.836Z,13.87
2018-03-27T14:37:43.569Z,12.80
2018-03-27T14:40:11.639Z,13.03
2018-03-27T14:42:39.232Z,11.10
2018-03-27T14:45:07.238Z,12.10
2018-03-27T14:47:38.990Z,11.63
2018-03-27T14:50:07.201Z,12.40
2018-03-27T14:52:36.597Z,12.97
2018-03-27T14:55:04.867Z,11.00
2018-03-27T14:57:33.124Z,13.77
2018-03-27T15:00:00.684Z,10.90
2018-03-27T15:02:30.121Z,11.80
2018-03-27T15:04:58.447Z,12.93
2018-03-27T15:07:26.453Z,9.93
2018-03-27T15:09:54.360Z,11.27
2018-03-27T15:12:22.240Z,10.63
2018-03-27T15:14:50.956Z,12.57
2018-03-27T15:17:19.644Z,10.30
2018-03-27T15:19:47.232Z,11.77
2018-03-27T15:22:14.838Z,11.00
2018-03-27T15:24:42.759Z,10.90
2018-03-27T15:27:10.636Z,10.00
2018-03-27T15:29:38.472Z,11.00
2018-03-27T15:32:07.175Z,10.23
2018-03-27T15:34:34.763Z,14.03
2018-03-27T15:37:02.603Z,12.53
2018-03-27T15:39:30.195Z,11.23
2018-03-27T15:41:58.515Z,13.20
2018-03-27T15:44:26.082Z,10.33
2018-03-27T15:46:53.908Z,10.20
2018-03-27T15:49:22.078Z,9.10
2018-03-27T15:51:49.696Z,13.63
2018-03-27T15:54:17.464Z,9.37
2018-03-27T15:56:46.101Z,13.20
2018-03-27T15:59:13.823Z,8.13
2018-03-27T16:01:41.848Z,9.53
2018-03-27T16:04:09.428Z,10.40
2018-03-27T16:06:37.290Z,9.83
2018-03-27T16:09:05.464Z,8.77
2018-03-27T16:11:33.416Z,9.97
2018-03-27T16:14:01.649Z,9.67
2018-03-27T16:16:31.033Z,9.40
2018-03-27T16:19:00.343Z,8.20
2018-03-27T16:21:29.896Z,8.17
2018-03-27T16:23:58.130Z,10.87
2018-03-27T16:26:26.297Z,9.43
2018-03-27T16:28:55.962Z,11.53
2018-03-27T16:31:25.358Z,11.57
2018-03-27T16:33:53.605Z,10.20
2018-03-27T16:36:22.252Z,24.57
2018-03-27T16:38:51.265Z,20.93
2018-03-27T16:41:20.350Z,11.60
2018-03-27T16:43:48.979Z,17.03
2018-03-27T16:46:20.248Z,28.47
2018-03-27T16:48:49.574Z,31.63
2018-03-27T16:51:19.714Z,13.30
2018-03-27T16:53:47.730Z,20.87
2018-03-27T16:56:17.344Z,19.77
2018-03-27T16:58:48.534Z,17.83
2018-03-27T17:01:17.218Z,22.17
2018-03-27T17:03:46.527Z,27.33
2018-03-27T17:06:15.736Z,22.20
2018-03-27T17:08:44.759Z,23.97
2018-03-27T17:11:14.111Z,27.60
2018-03-27T17:13:43.186Z,25.10
2018-03-27T17:16:11.300Z,39.92
2018-03-27T17:18:40.168Z,41.80
2018-03-27T17:21:09.789Z,39.70
2018-03-27T17:23:38.145Z,47.03
2018-03-27T17:26:07.505Z,37.15
2018-03-27T17:28:37.371Z,30.90
2018-03-27T17:31:05.761Z,35.13
2018-03-27T17:33:35.975Z,39.03
2018-03-27T17:36:05.928Z,18.83
2018-03-27T17:38:34.936Z,27.87
2018-03-27T17:41:04.479Z,29.27
2018-03-27T17:43:32.985Z,29.80
2018-03-27T17:46:02.714Z,28.50
2018-03-27T17:48:31.110Z,37.53
2018-03-27T17:50:59.842Z,27.90
2018-03-27T17:53:29.454Z,40.17
2018-03-27T17:55:58.693Z,30.20
2018-03-27T17:58:28.599Z,31.77
2018-03-27T18:00:57.578Z,37.97
2018-03-27T18:03:25.829Z,31.40
2018-03-27T18:05:53.828Z,40.87
2018-03-27T18:08:22.808Z,38.70
2018-03-27T18:10:51.472Z,37.23
2018-03-27T18:13:20.701Z,24.27
2018-03-27T18:15:49.083Z,27.30
2018-03-27T18:18:18.067Z,24.80
2018-03-27T18:20:50.039Z,26.87
2018-03-27T18:23:22.382Z,21.67
2018-03-27T18:25:51.813Z,18.63
2018-03-27T18:28:20.165Z,21.70
2018-03-27T18:30:51.405Z,18.17
2018-03-27T18:33:21.927Z,22.03
2018-03-27T18:35:51.770Z,24.77
2018-03-27T18:38:24.828Z,19.83
2018-03-27T18:40:53.411Z,20.83
2018-03-27T18:43:22.396Z,19.47
2018-03-27T18:45:54.878Z,18.93
2018-03-27T18:48:24.635Z,19.53
2018-03-27T18:50:54.110Z,19.07
2018-03-27T18:53:24.617Z,20.00
2018-03-27T18:55:54.565Z,16.57
2018-03-27T18:58:25.369Z,24.80
2018-03-27T19:00:55.317Z,16.17
2018-03-27T19:03:25.931Z,15.80
2018-03-27T19:05:56.649Z,20.33
2018-03-27T19:08:26.561Z,22.17
2018-03-27T19:10:55.586Z,19.73
2018-03-27T19:13:27.617Z,21.20
2018-03-27T19:15:57.190Z,23.90
2018-03-27T19:18:26.632Z,18.80
2018-03-27T19:20:57.178Z,19.90
2018-03-27T19:23:26.256Z,20.90
2018-03-27T19:25:55.280Z,23.17
2018-03-27T19:28:23.874Z,24.23
2018-03-27T19:30:52.749Z,25.00
2018-03-27T19:33:22.263Z,25.90
2018-03-27T19:35:51.983Z,27.70
2018-03-27T19:38:21.844Z,28.90
2018-03-27T19:40:52.158Z,22.50
2018-03-27T19:43:22.289Z,26.17
2018-03-27T19:45:52.517Z,22.80
2018-03-27T19:48:22.741Z,24.50
2018-03-27T19:50:52.388Z,25.80
2018-03-27T19:53:20.975Z,25.70
2018-03-27T19:55:50.395Z,27.30
2018-03-27T19:58:20.775Z,25.40
2018-03-27T20:00:49.843Z,23.43
2018-03-27T20:03:19.473Z,27.97
2018-03-27T20:05:48.687Z,26.20
2018-03-27T20:08:17.438Z,30.73
2018-03-27T20:10:46.052Z,23.73
2018-03-27T20:13:14.806Z,27.67
2018-03-27T20:15:44.752Z,28.93
2018-03-27T20:18:15.495Z,26.37
2018-03-27T20:20:43.934Z,26.50
2018-03-27T20:23:12.974Z,27.67
2018-03-27T20:25:42.534Z,25.43
2018-03-27T20:28:11.229Z,25.67
2018-03-27T20:30:42.977Z,28.70
2018-03-27T20:33:11.463Z,28.03
2018-03-27T20:35:40.903Z,32.53
2018-03-27T20:38:10.298Z,25.60
2018-03-27T20:40:39.252Z,26.47
2018-03-27T20:43:07.937Z,29.70
2018-03-27T20:45:36.866Z,30.53
2018-03-27T20:48:06.894Z,31.43
2018-03-27T20:50:35.785Z,28.87
2018-03-27T20:53:05.438Z,30.77
2018-03-27T20:55:34.873Z,29.97
2018-03-27T20:58:02.931Z,27.47
2018-03-27T21:00:31.915Z,29.97
2018-03-27T21:03:00.099Z,28.53
2018-03-27T21:05:29.086Z,28.33
2018-03-27T21:07:57.838Z,30.30
2018-03-27T21:10:26.853Z,27.57
2018-03-27T21:12:55.273Z,27.47
2018-03-27T21:15:24.059Z,34.27
2018-03-27T21:17:52.297Z,31.30
2018-03-27T21:20:20.918Z,31.23
2018-03-27T21:22:50.198Z,30.90
2018-03-27T21:25:19.256Z,33.77
2018-03-27T21:27:47.491Z,34.10
2018-03-27T21:30:16.225Z,32.53
2018-03-27T21:32:44.079Z,33.03
2018-03-27T21:35:11.682Z,30.47
2018-03-27T21:37:39.245Z,30.10
2018-03-27T21:40:07.083Z,30.13
2018-03-27T21:42:34.640Z,29.13
2018-03-27T21:45:02.269Z,28.17
2018-03-27T21:47:29.835Z,32.70
2018-03-27T21:49:57.638Z,29.03
2018-03-27T21:52:25.242Z,28.03
2018-03-27T21:54:52.796Z,30.93
2018-03-27T21:57:20.845Z,27.43
2018-03-27T21:59:48.949Z,30.20
2018-03-27T22:02:16.539Z,28.60
2018-03-27T22:04:44.305Z,28.37
2018-03-27T22:07:13.339Z,28.93
2018-03-27T22:09:40.943Z,29.27
2018-03-27T22:12:08.487Z,29.20
2018-03-27T22:14:36.510Z,31.63
2018-03-27T22:17:04.125Z,27.53
2018-03-27T22:19:31.724Z,24.23
2018-03-27T22:21:59.284Z,27.93
2018-03-27T22:24:26.886Z,28.87
2018-03-27T22:26:54.468Z,27.33
2018-03-27T22:29:22.493Z,27.47
2018-03-27T22:31:50.049Z,29.43
2018-03-27T22:34:17.644Z,29.20
2018-03-27T22:36:45.844Z,28.37
2018-03-27T22:39:13.405Z,28.70
2018-03-27T22:41:41.002Z,30.23
2018-03-27T22:44:08.599Z,42.93
2018-03-27T22:46:36.190Z,39.30
2018-03-27T22:49:03.740Z,29.97
2018-03-27T22:51:31.335Z,31.97
2018-03-27T22:53:59.636Z,35.53
2018-03-27T22:56:27.806Z,33.93
2018-03-27T22:58:55.375Z,32.50
2018-03-27T23:01:23.482Z,32.93
2018-03-27T23:03:52.027Z,33.83
2018-03-27T23:06:19.575Z,31.00
2018-03-27T23:08:47.916Z,34.13
2018-03-27T23:11:15.999Z,32.23
2018-03-27T23:13:43.559Z,32.33
2018-03-27T23:16:11.179Z,32.97
2018-03-27T23:18:38.737Z,31.93
2018-03-27T23:21:06.361Z,31.23
2018-03-27T23:23:33.907Z,35.53
2018-03-27T23:26:01.528Z,32.90
2018-03-27T23:28:29.626Z,33.37
2018-03-27T23:30:57.226Z,32.77
2018-03-27T23:33:24.788Z,32.83
2018-03-27T23:35:52.385Z,30.50
2018-03-27T23:38:19.979Z,33.43
2018-03-27T23:40:47.550Z,33.30
2018-03-27T23:43:15.147Z,33.03
2018-03-27T23:45:42.757Z,36.17
2018-03-27T23:48:11.313Z,37.07
2018-03-27T23:50:38.876Z,34.00
2018-03-27T23:53:06.429Z,33.63
2018-03-27T23:55:34.039Z,34.17
2018-03-27T23:58:01.867Z,33.60
